createdAt,value
2017-11-05T00:00:25.380Z,17.92
2017-11-05T00:02:53.081Z,17.70
2017-11-05T00:05:20.540Z,17.62
2017-11-05T00:07:48.085Z,18.55
2017-11-05T00:10:15.553Z,18.80
2017-11-05T00:12:43.756Z,17.40
2017-11-05T00:15:11.205Z,17.55
2017-11-05T00:17:38.710Z,17.83
2017-11-05T00:20:06.929Z,18.45
2017-11-05T00:22:34.378Z,18.45
2017-11-05T00:25:11.781Z,17.23
2017-11-05T00:27:40.008Z,18.25
2017-11-05T00:30:07.561Z,17.75
2017-11-05T00:32:35.009Z,18.70
2017-11-05T00:35:02.524Z,18.42
2017-11-05T00:37:29.979Z,18.37
2017-11-05T00:39:57.527Z,18.20
2017-11-05T00:42:24.976Z,18.83
2017-11-05T00:44:52.421Z,15.90
2017-11-05T00:47:19.880Z,15.27
2017-11-05T00:49:48.090Z,16.73
2017-11-05T00:52:15.652Z,15.68
2017-11-05T00:54:43.094Z,15.63
2017-11-05T00:57:10.548Z,15.75
2017-11-05T00:59:38.095Z,15.45
2017-11-05T01:02:05.616Z,17.40
2017-11-05T01:04:33.089Z,16.73
2017-11-05T01:07:00.673Z,15.10
2017-11-05T01:09:28.163Z,15.23
2017-11-05T01:11:55.613Z,15.80
2017-11-05T01:14:23.072Z,14.82
2017-11-05T01:16:51.320Z,14.05
2017-11-05T01:19:18.865Z,15.70
2017-11-05T01:21:46.415Z,15.45
2017-11-05T01:24:13.871Z,14.65
2017-11-05T01:26:41.514Z,16.40
2017-11-05T01:29:09.723Z,16.75
2017-11-05T01:31:37.169Z,14.80
2017-11-05T01:34:04.652Z,14.95
2017-11-05T01:36:32.095Z,15.25
2017-11-05T01:39:00.328Z,15.88
2017-11-05T01:41:27.796Z,15.20
2017-11-05T01:43:55.241Z,14.45
2017-11-05T01:46:22.669Z,13.82
2017-11-05T01:48:50.226Z,14.10
2017-11-05T01:51:17.744Z,12.52
2017-11-05T01:53:45.186Z,13.88
2017-11-05T01:56:12.629Z,13.77
2017-11-05T01:58:40.179Z,13.07
2017-11-05T02:01:07.595Z,12.98
2017-11-05T02:03:35.024Z,12.68
2017-11-05T02:06:02.473Z,13.23
2017-11-05T02:08:29.907Z,20.02
2017-11-05T02:10:57.365Z,15.57
2017-11-05T02:13:24.852Z,14.00
2017-11-05T02:15:52.292Z,12.73
2017-11-05T02:18:19.722Z,16.75
2017-11-05T02:20:47.287Z,13.62
2017-11-05T02:23:14.717Z,11.85
2017-11-05T02:25:42.160Z,12.20
2017-11-05T02:28:09.610Z,12.95
2017-11-05T02:30:37.048Z,9.73
2017-11-05T02:33:04.502Z,11.48
2017-11-05T02:35:31.945Z,11.63
2017-11-05T02:37:59.484Z,12.40
2017-11-05T02:40:26.920Z,11.82
2017-11-05T02:42:54.459Z,11.63
2017-11-05T02:45:21.909Z,10.77
2017-11-05T02:47:49.345Z,11.30
2017-11-05T02:50:16.795Z,11.45
2017-11-05T02:52:44.232Z,11.00
2017-11-05T02:55:11.677Z,10.63
2017-11-05T02:57:39.116Z,10.38
2017-11-05T03:00:06.560Z,11.38
2017-11-05T03:02:33.991Z,10.77
2017-11-05T03:05:01.452Z,12.63
2017-11-05T03:07:28.890Z,11.77
2017-11-05T03:09:56.440Z,11.02
2017-11-05T03:12:23.876Z,12.18
2017-11-05T03:14:51.316Z,10.52
2017-11-05T03:17:18.764Z,11.32
2017-11-05T03:19:46.204Z,12.10
2017-11-05T03:22:13.659Z,12.30
2017-11-05T03:24:41.283Z,11.38
2017-11-05T03:27:08.753Z,12.82
2017-11-05T03:29:36.188Z,12.30
2017-11-05T03:32:03.622Z,12.00
2017-11-05T03:34:31.069Z,11.40
2017-11-05T03:36:58.513Z,11.63
2017-11-05T03:39:26.167Z,11.00
2017-11-05T03:41:53.615Z,11.15
2017-11-05T03:44:21.096Z,11.18
2017-11-05T03:46:48.591Z,10.43
2017-11-05T03:49:16.034Z,11.73
2017-11-05T03:51:43.581Z,12.05
2017-11-05T03:54:11.132Z,10.82
2017-11-05T03:56:38.676Z,11.43
2017-11-05T03:59:16.036Z,12.50
2017-11-05T04:01:43.584Z,11.05
2017-11-05T04:04:11.021Z,11.85
2017-11-05T04:06:38.578Z,12.15
2017-11-05T04:09:06.111Z,11.65
2017-11-05T04:11:33.556Z,11.98
2017-11-05T04:14:00.992Z,11.95
2017-11-05T04:16:28.440Z,12.48
2017-11-05T04:18:55.876Z,11.93
2017-11-05T04:21:23.438Z,11.80
2017-11-05T04:23:50.980Z,11.52
2017-11-05T04:26:18.420Z,12.05
2017-11-05T04:28:45.876Z,13.07
2017-11-05T04:31:14.065Z,12.00
2017-11-05T04:33:41.575Z,11.85
2017-11-05T04:36:09.005Z,12.30
2017-11-05T04:38:36.452Z,12.68
2017-11-05T04:41:04.068Z,12.88
2017-11-05T04:43:31.548Z,12.57
2017-11-05T04:45:58.986Z,11.50
2017-11-05T04:48:26.415Z,12.32
2017-11-05T04:50:53.876Z,12.20
2017-11-05T04:53:21.314Z,10.40
2017-11-05T04:55:50.333Z,12.07
2017-11-05T04:58:17.800Z,12.70
2017-11-05T05:00:45.236Z,13.10
2017-11-05T05:03:12.728Z,11.48
2017-11-05T05:05:40.192Z,12.43
2017-11-05T05:08:08.402Z,12.10
2017-11-05T05:10:35.850Z,11.90
2017-11-05T05:13:03.307Z,11.57
2017-11-05T05:15:30.792Z,10.95
2017-11-05T05:17:58.236Z,10.95
2017-11-05T05:20:25.680Z,10.55
2017-11-05T05:22:53.121Z,11.02
2017-11-05T05:25:20.578Z,11.02
2017-11-05T05:27:48.048Z,12.25
2017-11-05T05:30:15.484Z,12.15
2017-11-05T05:32:42.953Z,10.55
2017-11-05T05:35:10.390Z,10.60
2017-11-05T05:37:37.831Z,10.93
2017-11-05T05:40:05.301Z,12.20
2017-11-05T05:42:33.544Z,12.35
2017-11-05T05:45:00.980Z,11.00
2017-11-05T05:47:28.423Z,10.68
2017-11-05T05:49:55.859Z,10.93
2017-11-05T05:52:23.307Z,11.27
2017-11-05T05:54:50.744Z,11.20
2017-11-05T05:57:18.203Z,12.68
2017-11-05T05:59:45.627Z,12.55
2017-11-05T06:02:13.087Z,11.73
2017-11-05T06:04:40.521Z,11.80
2017-11-05T06:07:08.077Z,11.60
2017-11-05T06:09:35.612Z,10.77
2017-11-05T06:12:03.161Z,11.40
2017-11-05T06:14:30.702Z,12.02
2017-11-05T06:16:58.141Z,11.60
2017-11-05T06:19:25.577Z,12.77
2017-11-05T06:21:53.136Z,14.25
2017-11-05T06:24:20.582Z,12.37
2017-11-05T06:26:48.128Z,11.10
2017-11-05T06:29:15.585Z,12.32
2017-11-05T06:31:43.111Z,12.05
2017-11-05T06:34:10.565Z,12.05
2017-11-05T06:36:37.996Z,12.75
2017-11-05T06:39:05.552Z,13.18
2017-11-05T06:41:33.086Z,13.95
2017-11-05T06:44:00.539Z,13.32
2017-11-05T06:46:27.976Z,12.10
2017-11-05T06:48:55.420Z,11.90
2017-11-05T06:51:22.859Z,12.48
2017-11-05T06:53:50.300Z,12.30
2017-11-05T06:56:17.736Z,11.52
2017-11-05T06:58:45.173Z,13.18
2017-11-05T07:01:12.625Z,12.02
2017-11-05T07:03:40.052Z,12.85
2017-11-05T07:06:07.508Z,12.88
2017-11-05T07:08:34.944Z,12.82
2017-11-05T07:11:02.388Z,27.10
2017-11-05T07:13:29.872Z,12.50
2017-11-05T07:15:58.077Z,12.23
2017-11-05T07:18:25.540Z,11.85
2017-11-05T07:20:53.012Z,12.00
2017-11-05T07:23:21.220Z,13.35
2017-11-05T07:25:48.661Z,12.45
2017-11-05T07:28:16.123Z,11.90
2017-11-05T07:30:43.576Z,13.30
2017-11-05T07:33:11.028Z,12.90
2017-11-05T07:35:39.311Z,13.25
2017-11-05T07:38:06.829Z,12.48
2017-11-05T07:40:34.259Z,11.15
2017-11-05T07:43:01.804Z,11.00
2017-11-05T07:45:29.253Z,11.00
2017-11-05T07:47:56.695Z,12.25
2017-11-05T07:50:24.157Z,10.90
2017-11-05T07:52:52.360Z,9.52
2017-11-05T07:55:19.819Z,11.30
2017-11-05T07:57:47.268Z,11.73
2017-11-05T08:00:14.828Z,10.90
2017-11-05T08:02:42.273Z,11.90
2017-11-05T08:05:09.811Z,11.38
2017-11-05T08:07:37.264Z,10.80
2017-11-05T08:10:04.732Z,10.83
2017-11-05T08:12:32.970Z,10.93
2017-11-05T08:15:00.791Z,9.20
2017-11-05T08:17:28.367Z,10.38
2017-11-05T08:19:55.807Z,10.80
2017-11-05T08:22:24.033Z,10.75
2017-11-05T08:24:51.459Z,12.23
2017-11-05T08:27:18.912Z,11.40
2017-11-05T08:29:46.335Z,24.50
2017-11-05T08:32:13.789Z,11.20
2017-11-05T08:34:41.271Z,11.13
2017-11-05T08:37:08.853Z,11.97
2017-11-05T08:39:37.087Z,10.70
2017-11-05T08:42:04.580Z,11.20
2017-11-05T08:44:32.076Z,12.93
2017-11-05T08:46:59.631Z,11.17
2017-11-05T08:49:27.064Z,11.37
2017-11-05T08:51:54.513Z,13.10
2017-11-05T08:54:27.598Z,12.83
2017-11-05T08:56:55.833Z,12.60
2017-11-05T08:59:23.289Z,11.70
2017-11-05T09:01:50.724Z,11.60
2017-11-05T09:04:19.673Z,10.40
2017-11-05T09:06:47.107Z,11.80
2017-11-05T09:09:14.611Z,11.40
2017-11-05T09:11:42.816Z,12.80
2017-11-05T09:14:10.266Z,11.47
2017-11-05T09:16:37.707Z,12.53
2017-11-05T09:19:05.224Z,13.60
2017-11-05T09:21:32.712Z,12.27
2017-11-05T09:24:00.178Z,12.73
2017-11-05T09:26:27.711Z,12.47
2017-11-05T09:28:55.153Z,12.60
2017-11-05T09:31:22.595Z,12.80
2017-11-05T09:33:50.044Z,11.60
2017-11-05T09:36:17.537Z,12.33
2017-11-05T09:38:45.021Z,16.20
2017-11-05T09:41:12.464Z,21.03
2017-11-05T09:43:39.895Z,15.60
2017-11-05T09:46:07.449Z,14.60
2017-11-05T09:48:34.888Z,14.87
2017-11-05T09:51:02.440Z,15.23
2017-11-05T09:53:29.876Z,13.73
2017-11-05T09:55:57.333Z,14.33
2017-11-05T09:58:24.796Z,14.87
2017-11-05T10:00:53.097Z,14.87
2017-11-05T10:03:20.544Z,15.83
2017-11-05T10:05:47.972Z,15.90
2017-11-05T10:08:15.422Z,16.60
2017-11-05T10:10:42.965Z,16.93
2017-11-05T10:13:10.405Z,15.63
2017-11-05T10:15:37.862Z,14.10
2017-11-05T10:18:05.388Z,15.60
2017-11-05T10:20:32.856Z,15.73
2017-11-05T10:23:00.416Z,17.07
2017-11-05T10:25:27.853Z,16.03
2017-11-05T10:27:55.304Z,17.07
2017-11-05T10:30:23.508Z,16.90
2017-11-05T10:32:50.944Z,16.60
2017-11-05T10:35:18.386Z,18.13
2017-11-05T10:37:45.820Z,17.07
2017-11-05T10:40:14.029Z,17.73
2017-11-05T10:42:41.939Z,17.03
2017-11-05T10:45:09.447Z,17.50
2017-11-05T10:47:36.936Z,18.10
2017-11-05T10:50:05.132Z,18.00
2017-11-05T10:52:32.606Z,17.83
2017-11-05T10:55:00.144Z,18.47
2017-11-05T10:57:27.588Z,16.10
2017-11-05T10:59:55.036Z,16.87
2017-11-05T11:02:22.498Z,16.83
2017-11-05T11:04:50.719Z,15.70
2017-11-05T11:07:18.264Z,16.30
2017-11-05T11:09:45.681Z,17.67
2017-11-05T11:12:13.169Z,16.93
2017-11-05T11:14:40.600Z,16.60
2017-11-05T11:17:09.547Z,16.57
2017-11-05T11:19:37.032Z,17.20
2017-11-05T11:22:04.484Z,16.23
2017-11-05T11:24:31.968Z,17.87
2017-11-05T11:26:59.465Z,16.27
2017-11-05T11:29:27.685Z,17.37
2017-11-05T11:31:55.132Z,15.50
2017-11-05T11:34:22.604Z,14.50
2017-11-05T11:36:50.149Z,14.70
2017-11-05T11:39:18.023Z,13.90
2017-11-05T11:41:46.260Z,15.00
2017-11-05T11:44:13.818Z,13.00
2017-11-05T11:46:41.257Z,13.07
2017-11-05T11:49:08.696Z,14.20
2017-11-05T11:51:36.156Z,13.97
2017-11-05T11:54:04.372Z,13.60
2017-11-05T11:56:31.812Z,11.83
2017-11-05T11:58:59.269Z,12.97
2017-11-05T12:01:26.716Z,13.40
2017-11-05T12:03:54.163Z,13.13
2017-11-05T12:06:21.642Z,13.03
2017-11-05T12:08:49.873Z,14.07
2017-11-05T12:11:17.413Z,13.43
2017-11-05T12:13:44.881Z,14.80
2017-11-05T12:16:13.094Z,14.77
2017-11-05T12:18:40.536Z,15.00
2017-11-05T12:21:08.067Z,13.80
2017-11-05T12:23:35.552Z,14.97
2017-11-05T12:26:03.100Z,15.73
2017-11-05T12:28:30.549Z,15.90
2017-11-05T12:30:58.796Z,11.53
2017-11-05T12:33:27.056Z,12.93
2017-11-05T12:35:54.500Z,13.30
2017-11-05T12:38:21.952Z,13.82
2017-11-05T12:40:49.424Z,11.90
2017-11-05T12:43:16.873Z,11.83
2017-11-05T12:45:44.328Z,11.57
2017-11-05T12:48:11.819Z,9.87
2017-11-05T12:50:39.312Z,10.00
2017-11-05T12:53:06.727Z,10.30
2017-11-05T12:55:35.117Z,9.00
2017-11-05T12:58:02.610Z,9.23
2017-11-05T13:00:30.066Z,11.00
2017-11-05T13:02:57.497Z,22.93
2017-11-05T13:05:24.981Z,11.60
2017-11-05T13:07:52.417Z,7.60
2017-11-05T13:10:19.847Z,7.62
2017-11-05T13:12:47.296Z,5.63
2017-11-05T13:15:14.740Z,3.72
2017-11-05T13:17:42.196Z,3.67
2017-11-05T13:20:09.730Z,2.83
2017-11-05T13:22:37.632Z,3.20
2017-11-05T13:25:05.073Z,3.40
2017-11-05T13:27:32.529Z,3.72
2017-11-05T13:30:00.128Z,3.60
2017-11-05T13:32:27.555Z,2.72
2017-11-05T13:34:55.762Z,2.10
2017-11-05T13:37:24.198Z,1.55
2017-11-05T13:39:51.641Z,1.45
2017-11-05T13:42:19.087Z,40.00
2017-11-05T13:44:46.583Z,0.90
2017-11-05T13:47:14.501Z,1.20
2017-11-05T13:49:42.976Z,1.10
2017-11-05T13:52:10.415Z,1.15
2017-11-05T13:54:37.861Z,1.05
2017-11-05T13:57:05.293Z,1.52
2017-11-05T13:59:32.747Z,1.40
2017-11-05T14:02:00.328Z,1.40
2017-11-05T14:04:28.516Z,1.20
2017-11-05T14:06:55.964Z,0.90
2017-11-05T14:09:23.392Z,1.23
2017-11-05T14:11:50.908Z,1.35
2017-11-05T14:14:18.394Z,1.40
2017-11-05T14:16:45.815Z,1.25
2017-11-05T14:19:14.039Z,0.77
2017-11-05T14:21:41.515Z,1.00
2017-11-05T14:24:08.942Z,0.98
2017-11-05T14:26:36.428Z,1.73
2017-11-05T14:29:03.873Z,1.48
2017-11-05T14:31:31.345Z,0.80
2017-11-05T14:33:59.542Z,1.10
2017-11-05T14:36:27.017Z,1.20
2017-11-05T14:38:54.472Z,1.30
2017-11-05T14:41:22.011Z,1.05
2017-11-05T14:43:49.429Z,2.97
2017-11-05T14:46:17.688Z,2.65
2017-11-05T14:48:45.147Z,1.92
2017-11-05T14:51:13.387Z,1.85
2017-11-05T14:53:40.812Z,1.25
2017-11-05T14:56:08.273Z,1.25
2017-11-05T14:58:36.563Z,1.05
2017-11-05T15:01:03.992Z,1.20
2017-11-05T15:03:31.471Z,1.27
2017-11-05T15:05:58.990Z,1.45
2017-11-05T15:08:26.418Z,1.60
2017-11-05T15:10:54.860Z,2.28
2017-11-05T15:13:22.288Z,1.90
2017-11-05T15:15:49.712Z,1.60
2017-11-05T15:18:17.157Z,1.67
2017-11-05T15:20:44.602Z,1.20
2017-11-05T15:23:12.040Z,1.40
2017-11-05T15:25:39.478Z,1.27
2017-11-05T15:28:06.986Z,2.50
2017-11-05T15:30:34.478Z,1.80
2017-11-05T15:33:01.944Z,1.70
2017-11-05T15:35:29.389Z,1.37
2017-11-05T15:37:56.821Z,2.20
2017-11-05T15:40:24.259Z,1.85
2017-11-05T15:42:51.704Z,2.10
2017-11-05T15:45:19.204Z,2.78
2017-11-05T15:47:46.677Z,2.80
2017-11-05T15:50:14.120Z,2.10
2017-11-05T15:52:41.632Z,2.42
2017-11-05T15:55:09.119Z,3.03
2017-11-05T15:57:36.600Z,1.50
2017-11-05T16:00:04.131Z,2.30
2017-11-05T16:02:31.544Z,2.55
2017-11-05T16:04:59.036Z,2.62
2017-11-05T16:07:27.332Z,2.30
2017-11-05T16:09:54.776Z,2.53
2017-11-05T16:12:22.265Z,2.72
2017-11-05T16:14:49.676Z,3.75
2017-11-05T16:17:17.125Z,4.18
2017-11-05T16:19:44.659Z,3.30
2017-11-05T16:22:12.096Z,4.12
2017-11-05T16:24:39.600Z,3.25
2017-11-05T16:27:07.855Z,2.90
2017-11-05T16:29:35.527Z,2.75
2017-11-05T16:32:02.940Z,3.00
2017-11-05T16:34:31.148Z,3.42
2017-11-05T16:36:58.641Z,2.20
2017-11-05T16:39:26.871Z,2.20
2017-11-05T16:41:54.296Z,1.80
2017-11-05T16:44:21.778Z,1.73
2017-11-05T16:46:50.028Z,2.80
2017-11-05T16:49:17.507Z,2.25
2017-11-05T16:51:45.697Z,2.50
2017-11-05T16:54:13.195Z,2.50
2017-11-05T16:56:41.382Z,2.20
2017-11-05T16:59:08.864Z,2.40
2017-11-05T17:01:36.289Z,2.60
2017-11-05T17:04:03.719Z,3.10
2017-11-05T17:06:31.194Z,3.70
2017-11-05T17:08:58.670Z,3.72
2017-11-05T17:11:26.866Z,3.60
2017-11-05T17:13:54.333Z,4.47
2017-11-05T17:16:21.800Z,3.70
2017-11-05T17:18:49.274Z,2.92
2017-11-05T17:21:17.472Z,5.82
2017-11-05T17:23:44.925Z,3.40
2017-11-05T17:26:12.371Z,4.32
2017-11-05T17:28:39.823Z,4.62
2017-11-05T17:31:07.315Z,3.72
2017-11-05T17:33:34.746Z,3.20
2017-11-05T17:36:02.175Z,3.42
2017-11-05T17:38:30.397Z,3.00
2017-11-05T17:40:57.846Z,3.65
2017-11-05T17:43:25.311Z,4.93
2017-11-05T17:45:52.778Z,3.65
2017-11-05T17:48:20.966Z,3.37
2017-11-05T17:50:48.451Z,5.72
2017-11-05T17:53:15.879Z,3.40
2017-11-05T17:55:43.355Z,3.10
2017-11-05T17:58:10.949Z,2.50
2017-11-05T18:00:38.427Z,2.22
2017-11-05T18:03:05.867Z,4.35
2017-11-05T18:05:33.296Z,4.10
2017-11-05T18:08:00.830Z,3.95
2017-11-05T18:10:28.261Z,5.12
2017-11-05T18:12:55.748Z,5.85
2017-11-05T18:15:23.226Z,6.87
2017-11-05T18:17:50.701Z,5.95
2017-11-05T18:20:18.126Z,5.90
2017-11-05T18:22:45.556Z,6.45
2017-11-05T18:25:13.047Z,6.22
2017-11-05T18:27:40.513Z,6.55
2017-11-05T18:30:08.001Z,6.68
2017-11-05T18:32:35.490Z,7.87
2017-11-05T18:35:02.920Z,7.70
2017-11-05T18:37:30.430Z,8.80
2017-11-05T18:39:57.853Z,7.15
2017-11-05T18:42:26.120Z,8.50
2017-11-05T18:44:53.544Z,7.93
2017-11-05T18:47:21.076Z,6.87
2017-11-05T18:49:49.416Z,8.32
2017-11-05T18:52:16.862Z,7.50
2017-11-05T18:54:44.446Z,7.70
2017-11-05T18:57:11.925Z,7.18
2017-11-05T18:59:39.456Z,7.07
2017-11-05T19:02:07.701Z,7.40
2017-11-05T19:04:35.912Z,8.57
2017-11-05T19:07:03.356Z,7.25
2017-11-05T19:09:30.848Z,8.52
2017-11-05T19:11:58.269Z,8.48
2017-11-05T19:14:26.477Z,8.80
2017-11-05T19:16:53.929Z,9.30
2017-11-05T19:19:21.398Z,9.77
2017-11-05T19:21:48.984Z,9.52
2017-11-05T19:24:17.472Z,9.75
2017-11-05T19:26:44.911Z,10.20
2017-11-05T19:29:12.348Z,10.43
2017-11-05T19:31:39.881Z,9.07
2017-11-05T19:34:07.355Z,40.38
2017-11-05T19:36:34.872Z,10.30
2017-11-05T19:39:02.356Z,11.90
2017-11-05T19:41:29.947Z,10.52
2017-11-05T19:43:58.196Z,10.43
2017-11-05T19:46:25.670Z,10.25
2017-11-05T19:48:53.835Z,11.20
2017-11-05T19:51:21.332Z,11.43
2017-11-05T19:53:48.768Z,10.75
2017-11-05T19:56:16.287Z,10.52
2017-11-05T19:58:43.742Z,11.12
2017-11-05T20:01:11.238Z,11.32
2017-11-05T20:03:38.748Z,9.30
2017-11-05T20:06:06.235Z,11.23
2017-11-05T20:08:33.740Z,11.07
2017-11-05T20:11:01.176Z,11.02
2017-11-05T20:13:28.664Z,11.57
2017-11-05T20:15:56.157Z,11.10
2017-11-05T20:18:23.636Z,12.07
2017-11-05T20:20:51.903Z,10.88
2017-11-05T20:23:19.397Z,12.30
2017-11-05T20:25:46.976Z,11.30
2017-11-05T20:28:14.441Z,11.23
2017-11-05T20:30:41.928Z,12.32
2017-11-05T20:33:09.426Z,11.85
2017-11-05T20:35:36.872Z,11.55
2017-11-05T20:38:04.341Z,11.40
2017-11-05T20:40:31.776Z,14.75
2017-11-05T20:42:59.275Z,11.20
2017-11-05T20:45:26.709Z,11.68
2017-11-05T20:47:54.227Z,11.15
2017-11-05T20:50:21.738Z,11.85
2017-11-05T20:52:49.170Z,13.30
2017-11-05T20:55:16.800Z,12.02
2017-11-05T20:57:44.269Z,11.65
2017-11-05T21:00:11.766Z,10.30
2017-11-05T21:02:39.222Z,11.65
2017-11-05T21:05:06.732Z,12.80
2017-11-05T21:07:34.252Z,13.05
2017-11-05T21:10:02.585Z,10.95
2017-11-05T21:12:30.111Z,10.95
2017-11-05T21:14:58.325Z,10.60
2017-11-05T21:17:25.839Z,11.05
2017-11-05T21:19:53.427Z,10.80
2017-11-05T21:22:20.985Z,10.75
2017-11-05T21:24:48.468Z,9.90
2017-11-05T21:27:15.947Z,10.10
2017-11-05T21:29:43.424Z,11.23
2017-11-05T21:32:10.852Z,12.00
2017-11-05T21:34:38.319Z,10.07
2017-11-05T21:37:05.828Z,10.43
2017-11-05T21:39:33.478Z,10.65
2017-11-05T21:42:01.804Z,12.30
2017-11-05T21:44:30.064Z,11.02
2017-11-05T21:46:58.089Z,11.55
2017-11-05T21:49:25.534Z,10.85
2017-11-05T21:51:52.976Z,11.68
2017-11-05T21:54:20.471Z,18.87
2017-11-05T21:56:47.960Z,13.38
2017-11-05T21:59:16.583Z,13.40
2017-11-05T22:01:44.008Z,12.43
2017-11-05T22:04:13.238Z,11.18
2017-11-05T22:06:40.751Z,10.95
2017-11-05T22:09:08.411Z,10.88
2017-11-05T22:11:35.906Z,10.95
2017-11-05T22:14:04.147Z,11.43
2017-11-05T22:16:31.629Z,9.77
2017-11-05T22:18:59.130Z,11.43
2017-11-05T22:21:26.620Z,10.35
2017-11-05T22:23:54.059Z,12.18
2017-11-05T22:26:21.649Z,11.57
2017-11-05T22:28:49.064Z,11.43
2017-11-05T22:31:16.605Z,10.98
2017-11-05T22:33:44.150Z,11.12
2017-11-05T22:36:11.580Z,11.48
2017-11-05T22:38:39.028Z,11.70
2017-11-05T22:41:06.462Z,11.18
2017-11-05T22:43:33.904Z,11.52
2017-11-05T22:46:01.487Z,11.88
2017-11-05T22:48:28.961Z,13.15
2017-11-05T22:50:56.392Z,14.13
2017-11-05T22:53:23.831Z,12.02
2017-11-05T22:55:52.188Z,12.50
2017-11-05T22:58:19.663Z,11.48
2017-11-05T23:00:47.861Z,12.95
2017-11-05T23:03:15.291Z,14.75
2017-11-05T23:05:42.728Z,11.73
2017-11-05T23:08:10.172Z,13.15
2017-11-05T23:10:37.693Z,12.40
2017-11-05T23:13:05.892Z,13.07
2017-11-05T23:15:33.337Z,13.00
2017-11-05T23:18:00.773Z,11.73
2017-11-05T23:20:28.256Z,11.98
2017-11-05T23:22:55.713Z,12.95
2017-11-05T23:25:23.184Z,13.20
2017-11-05T23:27:50.628Z,13.00
2017-11-05T23:30:18.071Z,13.95
2017-11-05T23:32:45.512Z,20.37
2017-11-05T23:35:12.949Z,13.82
2017-11-05T23:37:40.534Z,12.37
2017-11-05T23:40:07.957Z,13.05
2017-11-05T23:42:35.421Z,13.15
2017-11-05T23:45:02.888Z,12.05
2017-11-05T23:47:30.332Z,13.70
2017-11-05T23:49:57.798Z,14.20
2017-11-05T23:52:25.983Z,12.55
2017-11-05T23:54:53.420Z,12.60
2017-11-05T23:57:20.877Z,15.10
2017-11-05T23:59:48.384Z,12.60
